Current Conditions

Updated: 19-Apr-2018 03:01 AM  
Summary / Temperature Wind Rain






Feels like: 52°F

1-hour difference
1.0°F 1.0°F colder than last hour.

24-hour difference
7.3°F7.3°F warmer than yesterday at this time.

  Today Yesterday
High: 56.3°F
12:00 AM
69.3°F
2:58 PM
Low: 52.4°F
2:59 AM
38.8°F
6:26 AM
Calm WNW
0.0
Gust:  0.0 mph
0 Beaufort - Calm

Today: 6.9 - 7:39 PM
Month: 19.6 mph - Apr 17
Rain Today: 0.00 in
Current Rate (/hr): 0.000 in
Max Rate (/hr):
Rain Yesterday: 0.00 in
Storm Rain: 0.00 in
This Month: 0.36 in
Season Total: 6.40 in
Last Rain Event: 2 days ago
Humidity / Barometer Sun / Moon
Humidity: 73 Increased 1.0% in the last hour.
Dew Point: 44.0°F Decreased 0.6°F in the last hour.
Barometer: 29.958 inHg  
Baro Trend: Steady
Sunrise: 6:17 AM
Sunset: 7:33 PM
Moonrise: 9:13 AM
Moonset: 10:35 PM
Sky Conditions UV Index
Summary: Mostly clear
Visibility: 10 miles
Clouds: A few clouds @ 10,000 ft
KVIS - 2:56 AM PDT
Current: 0.0  None 
Thursday: 5.9  Moderate 
Friday: 8.1  Very High 
Air Quality Fire Danger
 Good 
Ozone 31 ppb
PM 2.5 3 μg/m3
3:00 AM PDT
Current: 2  Low 

Local Alerts Local Forecast
Local NWS Alerts
Today

Rain
Showers
High 61
Tonight

Mostly
Clear
Low 44
Fri

Sunny

High 66
Fri night

Clear

Low 52
Sat

Partly
Cloudy
High 79
Sat night

Partly
Cloudy
Low 57
Sun

Mostly
Sunny
High 83

Local Radar Local Satellite Neighborhood Cam Sky Cam
Local Radar Local Satellite Neighborhood Cam Sky Cam


Nearby Personal Stations

Weather Underground PWS KCAEXETE7     Weather Underground PWS KCAEXETE6     Weather Underground PWS KCAEXETE11

Nearby Airport Stations

KVIS - Visalia, California, USA
Distance from station: W 14mi, 23km
Updated: Thu, 19-Apr-2018 2:56am PDT
Few Clouds
Few Clouds
 Wind from W
Wind: W 6 mph , 9 km/h
Temperature: 50°F , 10°C
Wind Chill: 48°F , 9°C
Dew Point: 39°F , 4°C
Humidity: 67%
Barometer: 29.98 inHg , 1015.2 hPa
Clouds: Few Clouds
Visibility: 10 miles , 16 km
Cloud details: Few Clouds 10000 ft
2018/04/19 09:56 KVIS 190956Z AUTO 28005KT 10SM FEW100 10/04 A2998 RMK AO2 SLP159 T01000039
KPTV - Porterville, California, USA
Distance from station: SSE 19mi, 31km
Updated: Thu, 19-Apr-2018 2:56am PDT
Light rain, Overcast
Light rain, Overcast
 Wind from W
Wind: W 10 mph , 17 km/h
Temperature: 50°F , 10°C
Wind Chill: 46°F , 8°C
Dew Point: 39°F , 4°C
Humidity: 67%
Barometer: 29.99 inHg , 1015.6 hPa
Summary: Light rain
Clouds: Overcast
Visibility: 10 miles , 16 km
Cloud details: Few Clouds 6000 ft
Overcast 8500 ft
2018/04/19 09:56 KPTV 190956Z AUTO 26009KT 10SM -RA FEW060 OVC085 10/04 A2999 RMK AO2 RAB35 SLP167 P0000 T01000039

Metar display script from Saratoga-Weather.org



Visitor Map